sensor_id;sensor_type;location;lat;lon;timestamp;pressure;altitude;pressure_sealevel;temperature;humidity
21902;BME280;11115;46.038;14.612;2024-03-02T00:02:15;97650.94;;;8.58;100.00
21902;BME280;11115;46.038;14.612;2024-03-02T00:04:53;97669.66;;;8.70;100.00
21902;BME280;11115;46.038;14.612;2024-03-02T00:07:30;97665.69;;;8.62;100.00
21902;BME280;11115;46.038;14.612;2024-03-02T00:10:11;97666.41;;;8.68;100.00
21902;BME280;11115;46.038;14.612;2024-03-02T00:12:40;97665.75;;;8.71;100.00
21902;BME280;11115;46.038;14.612;2024-03-02T00:15:50;97666.50;;;8.63;100.00
21902;BME280;11115;46.038;14.612;2024-03-02T00:18:43;97674.78;;;8.63;100.00
21902;BME280;11115;46.038;14.612;2024-03-02T00:21:21;97670.09;;;8.63;100.00
21902;BME280;11115;46.038;14.612;2024-03-02T00:23:59;97673.97;;;8.62;100.00
21902;BME280;11115;46.038;14.612;2024-03-02T00:26:31;97670.88;;;8.55;100.00
21902;BME280;11115;46.038;14.612;2024-03-02T00:29:11;97671.22;;;8.62;100.00
21902;BME280;11115;46.038;14.612;2024-03-02T00:31:53;97656.41;;;8.49;100.00
21902;BME280;11115;46.038;14.612;2024-03-02T00:34:29;97675.09;;;8.61;100.00
21902;BME280;11115;46.038;14.612;2024-03-02T00:37:10;97670.56;;;8.65;100.00
21902;BME280;11115;46.038;14.612;2024-03-02T00:39:42;97668.78;;;8.61;100.00
21902;BME280;11115;46.038;14.612;2024-03-02T00:42:21;97675.78;;;8.67;100.00
21902;BME280;11115;46.038;14.612;2024-03-02T00:44:58;97666.34;;;8.59;100.00
21902;BME280;11115;46.038;14.612;2024-03-02T00:47:41;97671.84;;;8.59;100.00
21902;BME280;11115;46.038;14.612;2024-03-02T00:50:15;97676.06;;;8.57;100.00
21902;BME280;11115;46.038;14.612;2024-03-02T00:52:59;97676.38;;;8.55;100.00
21902;BME280;11115;46.038;14.612;2024-03-02T00:55:36;97679.63;;;8.57;100.00
21902;BME280;11115;46.038;14.612;2024-03-02T00:58:19;97678.25;;;8.46;100.00
21902;BME280;11115;46.038;14.612;2024-03-02T01:00:58;97680.81;;;8.42;100.00
21902;BME280;11115;46.038;14.612;2024-03-02T01:03:35;97685.91;;;8.49;100.00
21902;BME280;11115;46.038;14.612;2024-03-02T01:06:11;97687.53;;;8.50;100.00
21902;BME280;11115;46.038;14.612;2024-03-02T01:08:45;97678.75;;;8.48;100.00
21902;BME280;11115;46.038;14.612;2024-03-02T01:11:22;97686.59;;;8.55;100.00
21902;BME280;11115;46.038;14.612;2024-03-02T01:13:54;97680.19;;;8.45;100.00
21902;BME280;11115;46.038;14.612;2024-03-02T01:16:33;97666.22;;;8.42;100.00
21902;BME280;11115;46.038;14.612;2024-03-02T01:19:09;97677.88;;;8.39;100.00
21902;BME280;11115;46.038;14.612;2024-03-02T01:21:41;97674.50;;;8.42;100.00
21902;BME280;11115;46.038;14.612;2024-03-02T01:24:16;97676.75;;;8.40;100.00
21902;BME280;11115;46.038;14.612;2024-03-02T01:26:52;97677.94;;;8.47;100.00
21902;BME280;11115;46.038;14.612;2024-03-02T01:29:32;97671.03;;;8.59;100.00
21902;BME280;11115;46.038;14.612;2024-03-02T01:32:10;97680.75;;;8.56;100.00
21902;BME280;11115;46.038;14.612;2024-03-02T01:34:45;97676.25;;;8.38;100.00
21902;BME280;11115;46.038;14.612;2024-03-02T01:37:35;97678.56;;;8.44;100.00
21902;BME280;11115;46.038;14.612;2024-03-02T01:40:07;97681.81;;;8.46;100.00
21902;BME280;11115;46.038;14.612;2024-03-02T01:42:40;97683.19;;;8.58;100.00
21902;BME280;11115;46.038;14.612;2024-03-02T01:45:12;97668.75;;;8.52;100.00
21902;BME280;11115;46.038;14.612;2024-03-02T01:47:43;97681.06;;;8.55;100.00
21902;BME280;11115;46.038;14.612;2024-03-02T01:50:15;97676.88;;;8.57;100.00
21902;BME280;11115;46.038;14.612;2024-03-02T01:52:51;97671.50;;;8.52;100.00
21902;BME280;11115;46.038;14.612;2024-03-02T01:55:32;97671.66;;;8.56;100.00
21902;BME280;11115;46.038;14.612;2024-03-02T01:58:16;97652.63;;;8.45;100.00
21902;BME280;11115;46.038;14.612;2024-03-02T02:00:44;97665.34;;;8.55;100.00
21902;BME280;11115;46.038;14.612;2024-03-02T02:03:14;97667.78;;;8.57;100.00
21902;BME280;11115;46.038;14.612;2024-03-02T02:05:57;97673.94;;;8.54;100.00
21902;BME280;11115;46.038;14.612;2024-03-02T02:08:30;97665.28;;;8.46;100.00
21902;BME280;11115;46.038;14.612;2024-03-02T02:11:07;97669.38;;;8.49;100.00
21902;BME280;11115;46.038;14.612;2024-03-02T02:13:37;97672.31;;;8.52;100.00
21902;BME280;11115;46.038;14.612;2024-03-02T02:16:14;97659.84;;;8.55;100.00
21902;BME280;11115;46.038;14.612;2024-03-02T02:18:47;97661.63;;;8.60;100.00
21902;BME280;11115;46.038;14.612;2024-03-02T02:21:25;97655.88;;;8.47;100.00
21902;BME280;11115;46.038;14.612;2024-03-02T02:24:06;97657.53;;;8.48;100.00
21902;BME280;11115;46.038;14.612;2024-03-02T02:26:37;97650.38;;;8.47;100.00
21902;BME280;11115;46.038;14.612;2024-03-02T02:29:18;97655.78;;;8.52;100.00
21902;BME280;11115;46.038;14.612;2024-03-02T02:31:51;97652.53;;;8.50;100.00
21902;BME280;11115;46.038;14.612;2024-03-02T02:34:35;97648.00;;;8.55;100.00
21902;BME280;11115;46.038;14.612;2024-03-02T02:37:06;97640.78;;;8.45;100.00
21902;BME280;11115;46.038;14.612;2024-03-02T02:39:39;97651.25;;;8.57;100.00
21902;BME280;11115;46.038;14.612;2024-03-02T02:42:11;97643.22;;;8.46;100.00
21902;BME280;11115;46.038;14.612;2024-03-02T02:44:46;97643.28;;;8.55;100.00
21902;BME280;11115;46.038;14.612;2024-03-02T02:47:21;97650.13;;;8.58;100.00
21902;BME280;11115;46.038;14.612;2024-03-02T02:49:53;97656.75;;;8.57;100.00
21902;BME280;11115;46.038;14.612;2024-03-02T02:52:36;97654.50;;;8.59;100.00
21902;BME280;11115;46.038;14.612;2024-03-02T02:55:13;97656.25;;;8.55;100.00
21902;BME280;11115;46.038;14.612;2024-03-02T02:57:42;97637.03;;;8.41;100.00
21902;BME280;11115;46.038;14.612;2024-03-02T03:00:20;97654.56;;;8.45;100.00
21902;BME280;11115;46.038;14.612;2024-03-02T03:02:56;97656.41;;;8.49;100.00
21902;BME280;11115;46.038;14.612;2024-03-02T03:05:28;97633.34;;;8.45;100.00
21902;BME280;11115;46.038;14.612;2024-03-02T03:08:06;97656.75;;;8.57;100.00
21902;BME280;11115;46.038;14.612;2024-03-02T03:10:45;97650.44;;;8.56;100.00
21902;BME280;11115;46.038;14.612;2024-03-02T03:13:34;97647.50;;;8.52;100.00
21902;BME280;11115;46.038;14.612;2024-03-02T03:16:11;97654.00;;;8.57;100.00
21902;BME280;11115;46.038;14.612;2024-03-02T03:18:43;97627.31;;;8.43;100.00
21902;BME280;11115;46.038;14.612;2024-03-02T03:21:14;97648.00;;;8.55;100.00
21902;BME280;11115;46.038;14.612;2024-03-02T03:23:48;97648.75;;;8.46;100.00
21902;BME280;11115;46.038;14.612;2024-03-02T03:26:25;97633.09;;;8.33;100.00
21902;BME280;11115;46.038;14.612;2024-03-02T03:29:00;97649.69;;;8.42;100.00
21902;BME280;11115;46.038;14.612;2024-03-02T03:31:30;97646.31;;;8.45;100.00
21902;BME280;11115;46.038;14.612;2024-03-02T03:34:09;97646.13;;;8.41;100.00
21902;BME280;11115;46.038;14.612;2024-03-02T03:36:49;97638.75;;;8.50;100.00
21902;BME280;11115;46.038;14.612;2024-03-02T03:39:34;97637.59;;;8.51;100.00
21902;BME280;11115;46.038;14.612;2024-03-02T03:42:08;97640.03;;;8.53;100.00
21902;BME280;11115;46.038;14.612;2024-03-02T03:44:47;97568.94;;;8.10;100.00
21902;BME280;11115;46.038;14.612;2024-03-02T03:47:26;97638.53;;;8.47;100.00
21902;BME280;11115;46.038;14.612;2024-03-02T03:49:58;97644.56;;;8.49;100.00
21902;BME280;11115;46.038;14.612;2024-03-02T03:52:38;97643.38;;;8.41;100.00
21902;BME280;11115;46.038;14.612;2024-03-02T03:55:16;97645.97;;;8.46;100.00
21902;BME280;11115;46.038;14.612;2024-03-02T03:57:51;97638.75;;;8.50;100.00
21902;BME280;11115;46.038;14.612;2024-03-02T04:00:27;97636.78;;;8.51;100.00
21902;BME280;11115;46.038;14.612;2024-03-02T04:03:08;97644.75;;;8.52;100.00
21902;BME280;11115;46.038;14.612;2024-03-02T04:05:44;97659.16;;;8.49;100.00
21902;BME280;11115;46.038;14.612;2024-03-02T04:08:18;97652.88;;;8.58;100.00
21902;BME280;11115;46.038;14.612;2024-03-02T04:10:54;97646.06;;;8.55;100.00
21902;BME280;11115;46.038;14.612;2024-03-02T04:13:26;97654.16;;;8.51;100.00
21902;BME280;11115;46.038;14.612;2024-03-02T04:15:57;97651.25;;;8.57;100.00
21902;BME280;11115;46.038;14.612;2024-03-02T04:18:29;97652.19;;;8.52;100.00
21902;BME280;11115;46.038;14.612;2024-03-02T04:21:02;97645.72;;;8.57;100.00
21902;BME280;11115;46.038;14.612;2024-03-02T04:23:33;97648.50;;;8.57;100.00
21902;BME280;11115;46.038;14.612;2024-03-02T04:26:10;97646.88;;;8.56;100.00
21902;BME280;11115;46.038;14.612;2024-03-02T04:28:42;97646.88;;;8.56;100.00
21902;BME280;11115;46.038;14.612;2024-03-02T04:31:21;97616.44;;;8.38;100.00
21902;BME280;11115;46.038;14.612;2024-03-02T04:33:55;97645.25;;;8.55;100.00
21902;BME280;11115;46.038;14.612;2024-03-02T04:36:32;97644.25;;;8.50;100.00
21902;BME280;11115;46.038;14.612;2024-03-02T04:39:01;97632.34;;;8.41;100.00
21902;BME280;11115;46.038;14.612;2024-03-02T04:41:34;97625.69;;;8.42;100.00
21902;BME280;11115;46.038;14.612;2024-03-02T04:44:06;97647.00;;;8.50;100.00
21902;BME280;11115;46.038;14.612;2024-03-02T04:46:47;97645.88;;;8.51;100.00
21902;BME280;11115;46.038;14.612;2024-03-02T04:49:27;97651.50;;;8.46;100.00
21902;BME280;11115;46.038;14.612;2024-03-02T04:52:00;97644.25;;;8.50;100.00
21902;BME280;11115;46.038;14.612;2024-03-02T04:54:31;97657.22;;;8.50;100.00
21902;BME280;11115;46.038;14.612;2024-03-02T04:57:32;97652.78;;;8.40;100.00
21902;BME280;11115;46.038;14.612;2024-03-02T05:00:08;97652.00;;;8.26;100.00
21902;BME280;11115;46.038;14.612;2024-03-02T05:02:39;97656.38;;;8.27;100.00
21902;BME280;11115;46.038;14.612;2024-03-02T05:05:25;97644.03;;;8.25;100.00
21902;BME280;11115;46.038;14.612;2024-03-02T05:07:57;97652.28;;;8.38;100.00
21902;BME280;11115;46.038;14.612;2024-03-02T05:10:37;97644.63;;;8.35;100.00
21902;BME280;11115;46.038;14.612;2024-03-02T05:13:10;97653.00;;;8.30;100.00
21902;BME280;11115;46.038;14.612;2024-03-02T05:15:38;97641.78;;;8.27;100.00
21902;BME280;11115;46.038;14.612;2024-03-02T05:18:09;97656.84;;;8.43;100.00
21902;BME280;11115;46.038;14.612;2024-03-02T05:20:43;97667.03;;;8.42;100.00
21902;BME280;11115;46.038;14.612;2024-03-02T05:23:18;97659.91;;;8.41;100.00
21902;BME280;11115;46.038;14.612;2024-03-02T05:25:53;97666.53;;;8.40;100.00
21902;BME280;11115;46.038;14.612;2024-03-02T05:28:27;97659.28;;;8.44;100.00
21902;BME280;11115;46.038;14.612;2024-03-02T05:30:59;97653.22;;;8.34;100.00
21902;BME280;11115;46.038;14.612;2024-03-02T05:33:34;97658.72;;;8.34;100.00
21902;BME280;11115;46.038;14.612;2024-03-02T05:36:14;97672.19;;;8.35;100.00
21902;BME280;11115;46.038;14.612;2024-03-02T05:38:50;97675.94;;;8.39;100.00
21902;BME280;11115;46.038;14.612;2024-03-02T05:41:23;97672.69;;;8.37;100.00
21902;BME280;11115;46.038;14.612;2024-03-02T05:44:06;97675.06;;;8.30;100.00
21902;BME280;11115;46.038;14.612;2024-03-02T05:46:39;97678.38;;;8.41;100.00
21902;BME280;11115;46.038;14.612;2024-03-02T05:49:13;97688.66;;;8.49;100.00
21902;BME280;11115;46.038;14.612;2024-03-02T05:51:45;97689.59;;;8.44;100.00
21902;BME280;11115;46.038;14.612;2024-03-02T05:54:25;97672.50;;;8.34;100.00
21902;BME280;11115;46.038;14.612;2024-03-02T05:56:59;97685.69;;;8.45;100.00
21902;BME280;11115;46.038;14.612;2024-03-02T05:59:54;97683.00;;;8.32;100.00
21902;BME280;11115;46.038;14.612;2024-03-02T06:02:26;97688.72;;;8.35;100.00
21902;BME280;11115;46.038;14.612;2024-03-02T06:05:06;97694.56;;;8.34;100.00
21902;BME280;11115;46.038;14.612;2024-03-02T06:07:43;97703.94;;;8.33;100.00
21902;BME280;11115;46.038;14.612;2024-03-02T06:10:14;97699.31;;;8.42;100.00
21902;BME280;11115;46.038;14.612;2024-03-02T06:12:49;97698.97;;;8.43;100.00
21902;BME280;11115;46.038;14.612;2024-03-02T06:15:26;97705.81;;;8.46;100.00
21902;BME280;11115;46.038;14.612;2024-03-02T06:18:01;97704.75;;;8.33;100.00
21902;BME280;11115;46.038;14.612;2024-03-02T06:20:43;97708.69;;;8.41;100.00
21902;BME280;11115;46.038;14.612;2024-03-02T06:23:15;97719.00;;;8.49;100.00
21902;BME280;11115;46.038;14.612;2024-03-02T06:25:48;97706.75;;;8.41;100.00
21902;BME280;11115;46.038;14.612;2024-03-02T06:28:23;97711.13;;;8.42;100.00
21902;BME280;11115;46.038;14.612;2024-03-02T06:30:57;97712.34;;;8.50;100.00
21902;BME280;11115;46.038;14.612;2024-03-02T06:33:32;97711.81;;;8.48;100.00
21902;BME280;11115;46.038;14.612;2024-03-02T06:36:13;97726.56;;;8.43;100.00
21902;BME280;11115;46.038;14.612;2024-03-02T06:38:50;97723.16;;;8.46;100.00
21902;BME280;11115;46.038;14.612;2024-03-02T06:41:36;97723.97;;;8.47;100.00
21902;BME280;11115;46.038;14.612;2024-03-02T06:44:20;97731.75;;;8.45;100.00
21902;BME280;11115;46.038;14.612;2024-03-02T06:46:54;97725.50;;;8.53;100.00
21902;BME280;11115;46.038;14.612;2024-03-02T06:49:29;97725.34;;;8.58;100.00
21902;BME280;11115;46.038;14.612;2024-03-02T06:52:02;97719.16;;;8.52;100.00
21902;BME280;11115;46.038;14.612;2024-03-02T06:54:42;97730.41;;;8.65;100.00
21902;BME280;11115;46.038;14.612;2024-03-02T06:57:18;97728.97;;;8.67;100.00
21902;BME280;11115;46.038;14.612;2024-03-02T06:59:54;97729.28;;;8.66;100.00
21902;BME280;11115;46.038;14.612;2024-03-02T07:02:29;97735.00;;;8.69;100.00
21902;BME280;11115;46.038;14.612;2024-03-02T07:05:04;97735.00;;;8.69;100.00
21902;BME280;11115;46.038;14.612;2024-03-02T07:07:47;97735.81;;;8.70;100.00
21902;BME280;11115;46.038;14.612;2024-03-02T07:10:25;97732.75;;;8.71;100.00
21902;BME280;11115;46.038;14.612;2024-03-02T07:12:55;97744.94;;;8.79;100.00
21902;BME280;11115;46.038;14.612;2024-03-02T07:15:29;97747.72;;;8.79;100.00
21902;BME280;11115;46.038;14.612;2024-03-02T07:18:16;97744.69;;;8.67;100.00
21902;BME280;11115;46.038;14.612;2024-03-02T07:20:56;97728.75;;;8.55;100.00
21902;BME280;11115;46.038;14.612;2024-03-02T07:23:31;97743.88;;;8.66;100.00
21902;BME280;11115;46.038;14.612;2024-03-02T07:26:02;97757.13;;;8.78;100.00
21902;BME280;11115;46.038;14.612;2024-03-02T07:28:54;97756.44;;;8.72;100.00
21902;BME280;11115;46.038;14.612;2024-03-02T07:31:31;97758.00;;;8.87;100.00
21902;BME280;11115;46.038;14.612;2024-03-02T07:34:07;97754.53;;;8.81;100.00
21902;BME280;11115;46.038;14.612;2024-03-02T07:36:53;97760.63;;;8.92;100.00
21902;BME280;11115;46.038;14.612;2024-03-02T07:39:27;97695.97;;;8.54;100.00
21902;BME280;11115;46.038;14.612;2024-03-02T07:42:03;97767.91;;;8.88;100.00
21902;BME280;11115;46.038;14.612;2024-03-02T07:44:41;97760.44;;;8.89;100.00
21902;BME280;11115;46.038;14.612;2024-03-02T07:47:17;97760.66;;;9.01;100.00
21902;BME280;11115;46.038;14.612;2024-03-02T07:49:53;97768.69;;;9.11;100.00
21902;BME280;11115;46.038;14.612;2024-03-02T07:52:42;97769.63;;;9.06;100.00
21902;BME280;11115;46.038;14.612;2024-03-02T07:55:24;97773.00;;;9.03;100.00
21902;BME280;11115;46.038;14.612;2024-03-02T07:58:04;97773.00;;;9.03;100.00
21902;BME280;11115;46.038;14.612;2024-03-02T08:00:43;97778.03;;;9.01;100.00
21902;BME280;11115;46.038;14.612;2024-03-02T08:03:23;97778.75;;;9.16;100.00
21902;BME280;11115;46.038;14.612;2024-03-02T08:06:02;97772.59;;;9.19;100.00
21902;BME280;11115;46.038;14.612;2024-03-02T08:08:46;97775.03;;;9.20;100.00
21902;BME280;11115;46.038;14.612;2024-03-02T08:11:25;97746.63;;;9.20;100.00
21902;BME280;11115;46.038;14.612;2024-03-02T08:13:54;97772.69;;;9.36;100.00
21902;BME280;11115;46.038;14.612;2024-03-02T08:16:28;97770.41;;;9.38;100.00
21902;BME280;11115;46.038;14.612;2024-03-02T08:19:02;97776.59;;;9.43;100.00
21902;BME280;11115;46.038;14.612;2024-03-02T08:21:36;97774.66;;;9.44;100.00
21902;BME280;11115;46.038;14.612;2024-03-02T08:24:08;97767.06;;;9.58;100.00
21902;BME280;11115;46.038;14.612;2024-03-02T08:26:45;97771.13;;;9.52;100.00
21902;BME280;11115;46.038;14.612;2024-03-02T08:29:31;97765.44;;;9.49;100.00
21902;BME280;11115;46.038;14.612;2024-03-02T08:32:02;97776.50;;;9.57;100.00
21902;BME280;11115;46.038;14.612;2024-03-02T08:34:34;97773.75;;;9.57;100.00
21902;BME280;11115;46.038;14.612;2024-03-02T08:37:12;97769.50;;;9.51;100.00
21902;BME280;11115;46.038;14.612;2024-03-02T08:39:46;97786.91;;;9.60;100.00
21902;BME280;11115;46.038;14.612;2024-03-02T08:42:24;97782.34;;;9.56;100.00
21902;BME280;11115;46.038;14.612;2024-03-02T08:45:00;97787.06;;;9.55;100.00
21902;BME280;11115;46.038;14.612;2024-03-02T08:47:30;97785.75;;;9.61;100.00
21902;BME280;11115;46.038;14.612;2024-03-02T08:50:04;97789.22;;;9.67;100.00
21902;BME280;11115;46.038;14.612;2024-03-02T08:52:44;97785.97;;;9.65;100.00
21902;BME280;11115;46.038;14.612;2024-03-02T08:55:21;97789.50;;;9.57;100.00
21902;BME280;11115;46.038;14.612;2024-03-02T08:57:56;97780.25;;;9.61;100.00
21902;BME280;11115;46.038;14.612;2024-03-02T09:00:33;97786.63;;;9.70;100.00
21902;BME280;11115;46.038;14.612;2024-03-02T09:03:07;97786.81;;;9.83;100.00
21902;BME280;11115;46.038;14.612;2024-03-02T09:05:45;97788.31;;;9.97;100.00
21902;BME280;11115;46.038;14.612;2024-03-02T09:08:18;97785.91;;;10.04;100.00
21902;BME280;11115;46.038;14.612;2024-03-02T09:10:59;97788.72;;;10.30;100.00
21902;BME280;11115;46.038;14.612;2024-03-02T09:13:33;97782.22;;;10.26;100.00
21902;BME280;11115;46.038;14.612;2024-03-02T09:16:06;97742.47;;;9.88;100.00
21902;BME280;11115;46.038;14.612;2024-03-02T09:18:40;97789.53;;;10.22;100.00
21902;BME280;11115;46.038;14.612;2024-03-02T09:21:13;97791.59;;;10.17;100.00
21902;BME280;11115;46.038;14.612;2024-03-02T09:23:48;97791.66;;;10.25;100.00
21902;BME280;11115;46.038;14.612;2024-03-02T09:26:20;97777.84;;;10.25;100.00
21902;BME280;11115;46.038;14.612;2024-03-02T09:28:55;97787.91;;;10.39;100.00
21902;BME280;11115;46.038;14.612;2024-03-02T09:31:30;97788.72;;;10.39;100.00
21902;BME280;11115;46.038;14.612;2024-03-02T09:34:10;97790.19;;;10.28;100.00
21902;BME280;11115;46.038;14.612;2024-03-02T09:36:51;97801.09;;;10.24;100.00
21902;BME280;11115;46.038;14.612;2024-03-02T09:39:25;97773.38;;;10.16;100.00
21902;BME280;11115;46.038;14.612;2024-03-02T09:42:06;97795.88;;;10.23;100.00
21902;BME280;11115;46.038;14.612;2024-03-02T09:44:36;97783.38;;;10.43;100.00
21902;BME280;11115;46.038;14.612;2024-03-02T09:47:08;97792.97;;;10.28;100.00
21902;BME280;11115;46.038;14.612;2024-03-02T09:49:47;97776.53;;;10.31;100.00
21902;BME280;11115;46.038;14.612;2024-03-02T09:52:22;97787.09;;;10.55;100.00
21902;BME280;11115;46.038;14.612;2024-03-02T09:55:00;97777.84;;;10.51;100.00
21902;BME280;11115;46.038;14.612;2024-03-02T09:57:48;97784.00;;;10.74;100.00
21902;BME280;11115;46.038;14.612;2024-03-02T10:00:23;97774.22;;;11.03;100.00
21902;BME280;11115;46.038;14.612;2024-03-02T10:03:01;97778.03;;;11.28;100.00
21902;BME280;11115;46.038;14.612;2024-03-02T10:05:35;97782.28;;;11.16;100.00
21902;BME280;11115;46.038;14.612;2024-03-02T10:08:23;97778.72;;;11.16;100.00
21902;BME280;11115;46.038;14.612;2024-03-02T10:10:59;97779.59;;;11.46;100.00
21902;BME280;11115;46.038;14.612;2024-03-02T10:13:32;97768.53;;;11.75;100.00
21902;BME280;11115;46.038;14.612;2024-03-02T10:16:19;97779.06;;;11.99;100.00
21902;BME280;11115;46.038;14.612;2024-03-02T10:19:13;97768.81;;;12.21;100.00
21902;BME280;11115;46.038;14.612;2024-03-02T10:21:54;97774.03;;;12.43;100.00
21902;BME280;11115;46.038;14.612;2024-03-02T10:24:41;97765.28;;;12.53;100.00
21902;BME280;11115;46.038;14.612;2024-03-02T10:27:27;97737.28;;;12.25;100.00
21902;BME280;11115;46.038;14.612;2024-03-02T10:30:14;97764.22;;;12.45;100.00
21902;BME280;11115;46.038;14.612;2024-03-02T10:33:06;97759.59;;;12.50;100.00
21902;BME280;11115;46.038;14.612;2024-03-02T10:35:40;97765.28;;;12.32;100.00
21902;BME280;11115;46.038;14.612;2024-03-02T10:38:11;97756.78;;;12.17;100.00
21902;BME280;11115;46.038;14.612;2024-03-02T10:40:46;97759.47;;;12.25;100.00
21902;BME280;11115;46.038;14.612;2024-03-02T10:43:19;97748.38;;;12.04;100.00
21902;BME280;11115;46.038;14.612;2024-03-02T10:45:49;97758.78;;;12.28;100.00
21902;BME280;11115;46.038;14.612;2024-03-02T10:48:36;97751.69;;;12.19;100.00
21902;BME280;11115;46.038;14.612;2024-03-02T10:51:12;97751.94;;;12.05;100.00
21902;BME280;11115;46.038;14.612;2024-03-02T10:53:42;97748.50;;;12.29;100.00
21902;BME280;11115;46.038;14.612;2024-03-02T10:56:41;97750.44;;;12.37;100.00
21902;BME280;11115;46.038;14.612;2024-03-02T10:59:28;97745.72;;;12.50;100.00
21902;BME280;11115;46.038;14.612;2024-03-02T11:02:00;97743.72;;;13.25;100.00
21902;BME280;11115;46.038;14.612;2024-03-02T11:04:34;97745.69;;;13.49;100.00
21902;BME280;11115;46.038;14.612;2024-03-02T11:07:10;97732.41;;;13.91;100.00
21902;BME280;11115;46.038;14.612;2024-03-02T11:09:59;97738.03;;;14.31;100.00
21902;BME280;11115;46.038;14.612;2024-03-02T11:13:13;97736.31;;;14.14;100.00
21902;BME280;11115;46.038;14.612;2024-03-02T11:15:44;97722.97;;;14.72;100.00
21902;BME280;11115;46.038;14.612;2024-03-02T11:18:20;97737.19;;;15.27;100.00
21902;BME280;11115;46.038;14.612;2024-03-02T11:20:55;97729.28;;;15.60;100.00
21902;BME280;11115;46.038;14.612;2024-03-02T11:23:34;97723.56;;;16.20;100.00
21902;BME280;11115;46.038;14.612;2024-03-02T11:26:21;97726.47;;;16.62;100.00
21902;BME280;11115;46.038;14.612;2024-03-02T11:29:00;97723.03;;;16.68;100.00
21902;BME280;11115;46.038;14.612;2024-03-02T11:31:58;97728.44;;;16.42;100.00
21902;BME280;11115;46.038;14.612;2024-03-02T11:34:34;97720.38;;;16.76;100.00
21902;BME280;11115;46.038;14.612;2024-03-02T11:37:09;97713.06;;;17.10;100.00
21902;BME280;11115;46.038;14.612;2024-03-02T11:39:53;97710.38;;;16.94;100.00
21902;BME280;11115;46.038;14.612;2024-03-02T11:42:30;97693.41;;;17.48;100.00
21902;BME280;11115;46.038;14.612;2024-03-02T11:45:02;97701.38;;;17.69;100.00
21902;BME280;11115;46.038;14.612;2024-03-02T11:47:36;97686.72;;;17.76;100.00
21902;BME280;11115;46.038;14.612;2024-03-02T11:50:12;97687.25;;;17.62;100.00
21902;BME280;11115;46.038;14.612;2024-03-02T11:52:50;97684.78;;;17.57;100.00
21902;BME280;11115;46.038;14.612;2024-03-02T11:55:26;97686.88;;;18.43;100.00
21902;BME280;11115;46.038;14.612;2024-03-02T11:58:01;97689.13;;;18.04;100.00
21902;BME280;11115;46.038;14.612;2024-03-02T12:00:32;97676.34;;;17.76;100.00
21902;BME280;11115;46.038;14.612;2024-03-02T12:03:15;97674.53;;;17.19;100.00
21902;BME280;11115;46.038;14.612;2024-03-02T12:05:49;97677.06;;;17.73;100.00
21902;BME280;11115;46.038;14.612;2024-03-02T12:08:42;97672.38;;;18.64;100.00
21902;BME280;11115;46.038;14.612;2024-03-02T12:11:20;97668.81;;;19.89;100.00
21902;BME280;11115;46.038;14.612;2024-03-02T12:13:55;97672.84;;;19.95;100.00
21902;BME280;11115;46.038;14.612;2024-03-02T12:16:28;97672.03;;;19.47;100.00
21902;BME280;11115;46.038;14.612;2024-03-02T12:19:10;97671.69;;;20.03;100.00
21902;BME280;11115;46.038;14.612;2024-03-02T12:21:40;97669.91;;;20.39;100.00
21902;BME280;11115;46.038;14.612;2024-03-02T12:24:21;97673.50;;;21.51;100.00
21902;BME280;11115;46.038;14.612;2024-03-02T12:26:55;97670.97;;;20.93;100.00
21902;BME280;11115;46.038;14.612;2024-03-02T12:29:34;97658.09;;;20.88;100.00
21902;BME280;11115;46.038;14.612;2024-03-02T12:32:10;97661.38;;;20.21;100.00
21902;BME280;11115;46.038;14.612;2024-03-02T12:34:56;97662.97;;;19.60;100.00
21902;BME280;11115;46.038;14.612;2024-03-02T12:37:30;97658.28;;;18.90;100.00
21902;BME280;11115;46.038;14.612;2024-03-02T12:40:17;97654.59;;;18.23;100.00
21902;BME280;11115;46.038;14.612;2024-03-02T12:42:55;97657.69;;;18.44;100.00
21902;BME280;11115;46.038;14.612;2024-03-02T12:45:28;97653.63;;;18.38;100.00
21902;BME280;11115;46.038;14.612;2024-03-02T12:48:06;97646.91;;;17.86;100.00
21902;BME280;11115;46.038;14.612;2024-03-02T12:50:48;97647.53;;;17.53;100.00
21902;BME280;11115;46.038;14.612;2024-03-02T12:53:19;97647.53;;;17.53;100.00
21902;BME280;11115;46.038;14.612;2024-03-02T12:55:52;97650.44;;;17.11;100.00
21902;BME280;11115;46.038;14.612;2024-03-02T12:58:39;97648.50;;;16.92;100.00
21902;BME280;11115;46.038;14.612;2024-03-02T13:01:16;97647.25;;;16.12;100.00
21902;BME280;11115;46.038;14.612;2024-03-02T13:03:54;97643.44;;;16.01;100.00
21902;BME280;11115;46.038;14.612;2024-03-02T13:06:27;97650.75;;;15.90;100.00
21902;BME280;11115;46.038;14.612;2024-03-02T13:09:05;97653.69;;;15.30;100.00
21902;BME280;11115;46.038;14.612;2024-03-02T13:11:48;97656.75;;;15.09;100.00
21902;BME280;11115;46.038;14.612;2024-03-02T13:14:24;97657.00;;;15.04;100.00
21902;BME280;11115;46.038;14.612;2024-03-02T13:17:03;97651.19;;;14.66;100.00
21902;BME280;11115;46.038;14.612;2024-03-02T13:19:50;97658.94;;;14.44;100.00
21902;BME280;11115;46.038;14.612;2024-03-02T13:22:21;97663.84;;;13.83;100.00
21902;BME280;11115;46.038;14.612;2024-03-02T13:25:00;97665.97;;;13.37;100.00
21902;BME280;11115;46.038;14.612;2024-03-02T13:27:49;97658.41;;;13.25;100.00
21902;BME280;11115;46.038;14.612;2024-03-02T13:30:25;97655.19;;;13.60;100.00
21902;BME280;11115;46.038;14.612;2024-03-02T13:32:59;97609.69;;;13.28;100.00
21902;BME280;11115;46.038;14.612;2024-03-02T13:35:36;97654.81;;;13.74;100.00
21902;BME280;11115;46.038;14.612;2024-03-02T13:38:16;97655.56;;;14.51;100.00
21902;BME280;11115;46.038;14.612;2024-03-02T13:40:49;97647.66;;;16.68;100.00